createdAt,value
2023-04-15T00:00:59.824Z,73.97
2023-04-15T00:03:28.664Z,70.73
2023-04-15T00:05:59.876Z,70.53
2023-04-15T00:08:30.190Z,70.97
2023-04-15T00:11:02.617Z,71.33
2023-04-15T00:13:31.192Z,72.20
2023-04-15T00:15:59.883Z,72.50
2023-04-15T00:18:29.516Z,70.63
2023-04-15T00:20:58.163Z,71.60
2023-04-15T00:23:26.635Z,72.13
2023-04-15T00:25:56.915Z,71.73
2023-04-15T00:28:25.253Z,71.77
2023-04-15T00:30:53.757Z,72.53
2023-04-15T00:33:22.175Z,70.57
2023-04-15T00:35:50.915Z,69.83
2023-04-15T00:38:19.587Z,69.33
2023-04-15T00:40:48.553Z,71.10
2023-04-15T00:43:19.297Z,71.83
2023-04-15T00:45:48.158Z,71.50
2023-04-15T00:48:17.681Z,75.63
2023-04-15T00:50:46.400Z,71.17
2023-04-15T00:53:14.680Z,73.33
2023-04-15T00:55:43.579Z,75.20
2023-04-15T00:58:12.017Z,75.60
2023-04-15T01:00:42.054Z,74.33
2023-04-15T01:03:10.489Z,74.83
2023-04-15T01:05:39.923Z,74.10
2023-04-15T01:08:08.283Z,72.30
2023-04-15T01:10:37.879Z,73.60
2023-04-15T01:13:06.798Z,76.63
2023-04-15T01:15:37.608Z,76.07
2023-04-15T01:18:08.434Z,75.50
2023-04-15T01:20:39.883Z,76.27
2023-04-15T01:23:08.516Z,75.00
2023-04-15T01:25:38.495Z,77.37
2023-04-15T01:28:06.931Z,81.17
2023-04-15T01:30:36.049Z,74.17
2023-04-15T01:33:04.328Z,75.53
2023-04-15T01:35:33.377Z,76.43
2023-04-15T01:38:07.477Z,72.33
2023-04-15T01:40:37.928Z,73.17
2023-04-15T01:43:06.366Z,74.33
2023-04-15T01:45:34.912Z,71.77
2023-04-15T01:48:05.952Z,73.80
2023-04-15T01:50:36.799Z,74.43
2023-04-15T01:53:05.273Z,75.27
2023-04-15T01:55:33.857Z,75.90
2023-04-15T01:58:03.487Z,72.87
2023-04-15T02:00:32.667Z,73.33
2023-04-15T02:03:01.279Z,74.20
2023-04-15T02:05:30.447Z,74.93
2023-04-15T02:07:58.885Z,75.87
2023-04-15T02:10:27.463Z,77.33
2023-04-15T02:12:55.836Z,76.77
2023-04-15T02:15:25.982Z,74.77
2023-04-15T02:17:55.410Z,75.30
2023-04-15T02:20:24.355Z,75.00
2023-04-15T02:22:52.783Z,74.47
2023-04-15T02:25:21.528Z,74.67
2023-04-15T02:27:49.923Z,74.63
2023-04-15T02:30:19.178Z,72.17
2023-04-15T02:32:48.838Z,77.53
2023-04-15T02:35:19.778Z,74.17
2023-04-15T02:37:48.132Z,73.40
2023-04-15T02:40:17.220Z,72.43
2023-04-15T02:42:45.586Z,77.07
2023-04-15T02:45:18.139Z,76.67
2023-04-15T02:47:47.946Z,76.00
2023-04-15T02:50:17.210Z,73.03
2023-04-15T02:52:45.957Z,74.83
2023-04-15T02:55:14.888Z,73.70
2023-04-15T02:57:43.306Z,73.87
2023-04-15T03:00:14.148Z,85.00
2023-04-15T03:02:45.548Z,76.80
2023-04-15T03:05:16.229Z,74.73
2023-04-15T03:07:52.620Z,75.60
2023-04-15T03:10:22.281Z,76.87
2023-04-15T03:12:50.802Z,79.90
2023-04-15T03:15:21.612Z,79.83
2023-04-15T03:17:53.357Z,73.47
2023-04-15T03:20:23.507Z,75.73
2023-04-15T03:22:51.912Z,74.67
2023-04-15T03:25:22.353Z,78.17
2023-04-15T03:27:51.060Z,77.57
2023-04-15T03:30:19.737Z,80.07
2023-04-15T03:32:48.120Z,82.67
2023-04-15T03:35:17.267Z,76.70
2023-04-15T03:37:49.104Z,81.33
2023-04-15T03:40:18.057Z,77.43
2023-04-15T03:42:46.425Z,78.50
2023-04-15T03:45:15.149Z,78.13
2023-04-15T03:47:43.480Z,79.87
2023-04-15T03:50:12.514Z,82.70
2023-04-15T03:52:40.717Z,87.03
2023-04-15T03:55:11.256Z,83.97
2023-04-15T03:57:39.785Z,80.40
2023-04-15T04:00:10.686Z,77.63
2023-04-15T04:02:42.177Z,81.57
2023-04-15T04:05:11.285Z,85.33
2023-04-15T04:07:39.710Z,80.87
2023-04-15T04:10:10.667Z,82.07
2023-04-15T04:12:39.048Z,84.27
2023-04-15T04:15:09.307Z,88.60
2023-04-15T04:17:37.817Z,84.43
2023-04-15T04:20:08.213Z,87.30
2023-04-15T04:22:39.185Z,89.87
2023-04-15T04:25:11.178Z,89.40
2023-04-15T04:27:39.562Z,88.50
2023-04-15T04:30:09.719Z,88.17
2023-04-15T04:32:38.109Z,88.23
2023-04-15T04:35:07.157Z,89.07
2023-04-15T04:37:35.673Z,86.80
2023-04-15T04:40:04.939Z,89.67
2023-04-15T04:42:34.614Z,89.60
2023-04-15T04:45:03.249Z,85.27
2023-04-15T04:47:31.809Z,90.70
2023-04-15T04:50:00.844Z,91.70
2023-04-15T04:52:29.142Z,88.77
2023-04-15T04:54:57.514Z,89.10
2023-04-15T04:57:25.746Z,91.70
2023-04-15T04:59:55.942Z,89.23
2023-04-15T05:02:27.245Z,87.03
2023-04-15T05:04:56.166Z,86.97
2023-04-15T05:07:24.472Z,88.13
2023-04-15T05:09:53.241Z,94.73
2023-04-15T05:12:21.644Z,89.33
2023-04-15T05:14:50.143Z,87.67
2023-04-15T05:17:19.863Z,89.73
2023-04-15T05:19:48.990Z,89.43
2023-04-15T05:22:17.324Z,91.17
2023-04-15T05:24:45.959Z,87.57
2023-04-15T05:27:14.271Z,88.57
2023-04-15T05:29:42.876Z,90.87
2023-04-15T05:32:11.476Z,89.97
2023-04-15T05:34:41.748Z,91.33
2023-04-15T05:37:10.070Z,87.33
2023-04-15T05:39:38.722Z,90.23
2023-04-15T05:42:07.053Z,87.27
2023-04-15T05:44:35.650Z,89.83
2023-04-15T05:47:05.935Z,87.20
2023-04-15T05:49:34.511Z,86.53
2023-04-15T05:52:04.000Z,84.27
2023-04-15T05:54:32.503Z,86.83
2023-04-15T05:57:00.980Z,88.20
2023-04-15T05:59:29.746Z,92.27
2023-04-15T06:01:58.214Z,86.47
2023-04-15T06:04:26.995Z,84.37
2023-04-15T06:06:55.691Z,85.93
2023-04-15T06:09:25.564Z,86.23
2023-04-15T06:11:54.126Z,85.37
2023-04-15T06:14:22.603Z,84.60
2023-04-15T06:16:51.270Z,84.27
2023-04-15T06:19:20.493Z,81.13
2023-04-15T06:21:48.964Z,86.27
2023-04-15T06:24:18.079Z,83.00
2023-04-15T06:26:48.437Z,86.80
2023-04-15T06:29:17.335Z,85.60
2023-04-15T06:31:45.912Z,87.60
2023-04-15T06:34:14.804Z,82.97
2023-04-15T06:36:43.001Z,81.10
2023-04-15T06:39:11.610Z,79.13
2023-04-15T06:41:40.077Z,80.10
2023-04-15T06:44:10.181Z,80.67
2023-04-15T06:46:38.466Z,82.93
2023-04-15T06:49:07.038Z,80.17
2023-04-15T06:51:36.199Z,82.83
2023-04-15T06:54:06.166Z,81.57
2023-04-15T06:56:34.913Z,79.43
2023-04-15T06:59:03.656Z,82.37
2023-04-15T07:01:33.440Z,78.57
2023-04-15T07:04:02.113Z,85.40
2023-04-15T07:06:30.417Z,80.87
2023-04-15T07:08:59.603Z,79.83
2023-04-15T07:11:28.268Z,80.33
2023-04-15T07:13:56.802Z,77.13
2023-04-15T07:16:27.087Z,75.23
2023-04-15T07:18:58.321Z,75.83
2023-04-15T07:21:27.649Z,80.03
2023-04-15T07:23:56.279Z,75.97
2023-04-15T07:26:24.804Z,78.23
2023-04-15T07:28:53.188Z,78.67
2023-04-15T07:31:21.381Z,79.50
2023-04-15T07:33:50.135Z,80.23
2023-04-15T07:36:19.747Z,77.10
2023-04-15T07:38:48.427Z,80.70
2023-04-15T07:41:16.811Z,76.13
2023-04-15T07:43:45.364Z,77.37
2023-04-15T07:46:13.538Z,79.13
2023-04-15T07:48:42.700Z,74.43
2023-04-15T07:51:12.910Z,74.20
2023-04-15T07:53:43.108Z,77.53
2023-04-15T07:56:11.390Z,74.83
2023-04-15T07:58:39.938Z,73.77
2023-04-15T08:01:08.544Z,73.93
2023-04-15T08:03:37.658Z,77.43
2023-04-15T08:06:06.655Z,76.10
2023-04-15T08:08:35.678Z,75.00
2023-04-15T08:11:05.370Z,77.07
2023-04-15T08:13:33.943Z,78.00
2023-04-15T08:16:24.485Z,75.87
2023-04-15T08:18:56.421Z,76.10
2023-04-15T08:21:25.230Z,78.23
2023-04-15T08:23:54.841Z,73.73
2023-04-15T08:26:24.417Z,76.40
2023-04-15T08:28:53.181Z,78.13
2023-04-15T08:31:21.979Z,73.93
2023-04-15T08:33:52.110Z,73.40
2023-04-15T08:36:21.082Z,74.40
2023-04-15T08:38:49.965Z,71.20
2023-04-15T08:41:23.411Z,71.07
2023-04-15T08:43:58.478Z,72.63
2023-04-15T08:46:27.334Z,71.57
2023-04-15T08:48:58.501Z,76.93
2023-04-15T08:51:27.681Z,74.27
2023-04-15T08:53:56.535Z,72.73
2023-04-15T08:56:26.759Z,74.27
2023-04-15T08:58:57.210Z,72.07
2023-04-15T09:01:26.514Z,72.83
2023-04-15T09:03:55.686Z,73.50
2023-04-15T09:06:24.620Z,73.67
2023-04-15T09:08:53.973Z,71.20
2023-04-15T09:11:23.430Z,72.03
2023-04-15T09:13:52.567Z,72.00
2023-04-15T09:16:22.138Z,74.37
2023-04-15T09:18:50.824Z,72.77
2023-04-15T09:21:19.423Z,73.33
2023-04-15T09:23:58.518Z,72.90
2023-04-15T09:26:37.927Z,72.40
2023-04-15T09:29:09.181Z,73.10
2023-04-15T09:31:39.085Z,72.50
2023-04-15T09:34:08.190Z,72.40
2023-04-15T09:37:00.948Z,71.07
2023-04-15T09:39:29.762Z,71.50
2023-04-15T09:42:08.361Z,71.20
2023-04-15T09:44:36.986Z,72.83
2023-04-15T09:47:07.526Z,71.50
2023-04-15T09:49:36.188Z,71.27
2023-04-15T09:52:06.653Z,71.07
2023-04-15T09:54:37.046Z,73.43
2023-04-15T09:57:09.882Z,72.97
2023-04-15T09:59:38.576Z,72.03
2023-04-15T10:02:08.677Z,71.77
2023-04-15T10:04:41.525Z,71.60
2023-04-15T10:07:10.607Z,71.53
2023-04-15T10:09:40.344Z,73.90
2023-04-15T10:12:08.903Z,71.37
2023-04-15T10:14:39.580Z,77.57
2023-04-15T10:17:12.190Z,80.13
2023-04-15T10:19:42.383Z,74.60
2023-04-15T10:22:11.227Z,73.33
2023-04-15T10:24:41.244Z,71.07
2023-04-15T10:27:09.902Z,74.80
2023-04-15T10:29:38.919Z,72.00
2023-04-15T10:32:07.686Z,74.83
2023-04-15T10:34:38.740Z,72.63
2023-04-15T10:37:10.984Z,71.87
2023-04-15T10:39:41.921Z,80.13
2023-04-15T10:42:11.354Z,75.23
2023-04-15T10:44:42.702Z,76.73
2023-04-15T10:47:18.701Z,73.20
2023-04-15T10:49:50.343Z,70.17
2023-04-15T10:52:24.110Z,72.10
2023-04-15T10:55:04.025Z,70.53
2023-04-15T10:57:37.091Z,69.83
2023-04-15T11:00:13.891Z,70.60
2023-04-15T11:02:45.858Z,75.13
2023-04-15T11:05:17.366Z,76.80
2023-04-15T11:07:54.702Z,72.90
2023-04-15T11:10:54.824Z,69.60
2023-04-15T11:13:31.416Z,68.53
2023-04-15T11:16:02.587Z,69.10
2023-04-15T11:18:32.961Z,68.60
2023-04-15T11:21:07.880Z,68.17
2023-04-15T11:23:39.161Z,67.63
2023-04-15T11:26:12.424Z,69.13
2023-04-15T11:28:42.327Z,67.03
2023-04-15T11:31:12.703Z,69.07
2023-04-15T11:33:48.024Z,70.87
2023-04-15T11:36:17.987Z,71.33
2023-04-15T11:38:48.238Z,67.93
2023-04-15T11:41:21.119Z,68.80
2023-04-15T11:43:49.724Z,67.30
2023-04-15T11:46:18.508Z,70.07
2023-04-15T11:48:48.110Z,68.60
2023-04-15T11:51:18.627Z,69.80
2023-04-15T11:53:48.492Z,69.30
2023-04-15T11:56:21.449Z,71.67
2023-04-15T11:58:53.064Z,74.10
2023-04-15T12:01:21.750Z,70.23
2023-04-15T12:03:50.760Z,68.07
2023-04-15T12:06:21.917Z,68.60
2023-04-15T12:08:52.649Z,67.10
2023-04-15T12:11:21.971Z,66.93
2023-04-15T12:13:51.805Z,67.00
2023-04-15T12:16:20.945Z,69.90
2023-04-15T12:18:51.980Z,68.13
2023-04-15T12:21:22.598Z,68.77
2023-04-15T12:23:51.491Z,68.47
2023-04-15T12:26:28.523Z,67.80
2023-04-15T12:28:57.407Z,73.33
2023-04-15T12:31:26.016Z,68.20
2023-04-15T12:33:56.701Z,69.03
2023-04-15T12:36:27.229Z,69.13
2023-04-15T12:38:56.047Z,74.07
2023-04-15T12:41:25.391Z,71.80
2023-04-15T12:43:53.591Z,74.03
2023-04-15T12:46:22.126Z,80.77
2023-04-15T12:48:52.021Z,76.83
2023-04-15T12:51:21.332Z,75.77
2023-04-15T12:53:51.101Z,76.23
2023-04-15T12:56:19.888Z,77.97
2023-04-15T12:58:48.347Z,77.87
2023-04-15T13:01:16.939Z,79.97
2023-04-15T13:03:45.471Z,78.23
2023-04-15T13:06:14.274Z,76.27
2023-04-15T13:08:51.261Z,74.93
2023-04-15T13:11:27.555Z,74.93
2023-04-15T13:13:56.959Z,73.73
2023-04-15T13:16:25.744Z,76.90
2023-04-15T13:18:54.047Z,73.60
2023-04-15T13:21:22.833Z,72.80
2023-04-15T13:23:51.504Z,70.53
2023-04-15T13:26:20.487Z,75.30
2023-04-15T13:28:49.943Z,70.73
2023-04-15T13:31:18.677Z,74.00
2023-04-15T13:33:47.354Z,70.83
2023-04-15T13:36:15.896Z,69.83
2023-04-15T13:38:44.260Z,70.03
2023-04-15T13:41:13.326Z,68.40
2023-04-15T13:43:41.709Z,66.67
2023-04-15T13:46:11.821Z,68.90
2023-04-15T13:48:40.056Z,68.90
2023-04-15T13:51:08.813Z,71.17
2023-04-15T13:53:39.027Z,69.33
2023-04-15T13:56:08.746Z,72.23
2023-04-15T13:58:37.823Z,72.93
2023-04-15T14:01:07.638Z,73.87
2023-04-15T14:03:37.727Z,69.83
2023-04-15T14:06:07.704Z,70.00
2023-04-15T14:08:36.008Z,71.53
2023-04-15T14:11:04.410Z,69.07
2023-04-15T14:13:32.761Z,71.30
2023-04-15T14:16:01.554Z,68.67
2023-04-15T14:18:30.413Z,69.30
2023-04-15T14:21:00.065Z,67.73
2023-04-15T14:23:29.012Z,76.97
2023-04-15T14:25:57.382Z,75.70
2023-04-15T14:28:26.386Z,80.10
2023-04-15T14:30:54.732Z,74.30
2023-04-15T14:33:23.378Z,69.90
2023-04-15T14:35:52.460Z,69.10
2023-04-15T14:38:22.765Z,72.97
2023-04-15T14:40:51.187Z,77.67
2023-04-15T14:43:19.982Z,77.70
2023-04-15T14:45:48.266Z,73.20
2023-04-15T14:48:17.458Z,74.70
2023-04-15T14:50:45.826Z,69.00
2023-04-15T14:53:14.466Z,67.85
2023-04-15T14:55:45.057Z,75.10
2023-04-15T14:58:13.518Z,71.47
2023-04-15T15:00:44.400Z,75.77
2023-04-15T15:03:13.656Z,72.93
2023-04-15T15:05:42.493Z,69.27
2023-04-15T15:08:11.396Z,69.90
2023-04-15T15:10:49.307Z,70.23
2023-04-15T15:13:20.074Z,72.77
2023-04-15T15:15:50.209Z,69.90
2023-04-15T15:18:19.650Z,70.83
2023-04-15T15:20:48.597Z,71.85
2023-04-15T15:23:17.242Z,73.90
2023-04-15T15:25:46.920Z,72.03
2023-04-15T15:28:15.588Z,77.57
2023-04-15T15:30:45.275Z,73.03
2023-04-15T15:33:13.763Z,71.30
2023-04-15T15:35:42.110Z,69.20
2023-04-15T15:38:13.443Z,69.97
2023-04-15T15:40:41.708Z,75.77
2023-04-15T15:43:10.332Z,71.27
2023-04-15T15:45:38.682Z,87.17
2023-04-15T15:48:08.724Z,70.27
2023-04-15T15:50:37.072Z,79.23
2023-04-15T15:53:06.059Z,92.23
2023-04-15T15:55:34.725Z,97.23
2023-04-15T15:58:03.229Z,95.47
2023-04-15T16:00:31.585Z,88.53
2023-04-15T16:05:33.282Z,75.77
2023-04-15T16:08:01.884Z,72.70
2023-04-15T16:10:30.806Z,72.23
2023-04-15T16:12:59.416Z,71.30
2023-04-15T16:15:27.588Z,71.80
2023-04-15T16:17:55.987Z,71.47
2023-04-15T16:20:24.481Z,73.40
2023-04-15T16:22:54.500Z,72.53
2023-04-15T16:25:22.837Z,73.43
2023-04-15T16:28:01.378Z,74.23
2023-04-15T16:30:36.911Z,72.13
2023-04-15T16:33:05.773Z,73.27
2023-04-15T16:35:34.906Z,74.07
2023-04-15T16:38:06.372Z,72.17
2023-04-15T16:40:34.922Z,75.57
2023-04-15T16:43:04.495Z,77.17
2023-04-15T16:45:32.898Z,99.13
2023-04-15T16:48:01.412Z,80.07
2023-04-15T16:50:30.022Z,80.67
2023-04-15T16:52:58.423Z,80.60
2023-04-15T16:55:28.205Z,76.40
2023-04-15T16:58:02.562Z,76.33
2023-04-15T17:00:32.053Z,74.20
2023-04-15T17:03:01.535Z,78.77
2023-04-15T17:05:30.588Z,79.73
2023-04-15T17:07:59.571Z,76.90
2023-04-15T17:10:29.429Z,80.23
2023-04-15T17:12:58.976Z,79.03
2023-04-15T17:15:27.816Z,78.03
2023-04-15T17:17:56.396Z,79.30
2023-04-15T17:20:24.627Z,79.93
2023-04-15T17:22:53.853Z,76.40
2023-04-15T17:25:22.229Z,74.97
2023-04-15T17:27:52.170Z,77.60
2023-04-15T17:30:20.756Z,79.57
2023-04-15T17:32:49.292Z,80.00
2023-04-15T17:35:17.606Z,76.00
2023-04-15T17:37:47.557Z,79.00
2023-04-15T17:40:15.963Z,79.13
2023-04-15T17:42:44.483Z,76.90
2023-04-15T17:45:15.315Z,76.50
2023-04-15T17:47:43.957Z,75.70
2023-04-15T17:50:12.227Z,78.40
2023-04-15T17:52:40.788Z,79.53
2023-04-15T17:55:09.667Z,75.23
2023-04-15T17:57:38.328Z,78.00
2023-04-15T18:00:08.834Z,80.07
2023-04-15T18:02:42.693Z,82.47
2023-04-15T18:05:11.657Z,84.83
2023-04-15T18:07:40.522Z,83.50
2023-04-15T18:10:10.174Z,82.00
2023-04-15T18:12:38.993Z,80.07
2023-04-15T18:15:09.449Z,81.60
2023-04-15T18:17:38.174Z,83.17
2023-04-15T18:20:08.939Z,78.87
2023-04-15T18:22:37.561Z,80.03
2023-04-15T18:25:06.863Z,75.97
2023-04-15T18:27:36.078Z,74.07
2023-04-15T18:30:04.676Z,81.40
2023-04-15T18:32:33.245Z,75.93
2023-04-15T18:35:02.041Z,78.47
2023-04-15T18:37:32.887Z,76.13
2023-04-15T18:40:01.358Z,73.67
2023-04-15T18:42:29.902Z,76.77
2023-04-15T18:44:58.477Z,74.33
2023-04-15T18:47:28.007Z,72.63
2023-04-15T18:49:58.117Z,76.23
2023-04-15T18:52:26.593Z,77.93
2023-04-15T18:54:56.263Z,80.40
2023-04-15T18:57:25.971Z,83.53
2023-04-15T18:59:59.458Z,79.43
2023-04-15T19:02:28.231Z,83.13
2023-04-15T19:04:56.894Z,77.83
2023-04-15T19:07:25.486Z,80.27
2023-04-15T19:09:55.908Z,85.47
2023-04-15T19:12:24.649Z,82.57
2023-04-15T19:14:52.972Z,83.80
2023-04-15T19:17:21.665Z,81.27
2023-04-15T19:19:50.170Z,84.73
2023-04-15T19:22:18.971Z,87.40
2023-04-15T19:24:47.361Z,88.10
2023-04-15T19:27:17.347Z,81.37
2023-04-15T19:29:45.627Z,80.13
2023-04-15T19:32:14.662Z,79.00
2023-04-15T19:34:43.095Z,82.73
2023-04-15T19:37:12.699Z,81.97
2023-04-15T19:39:40.918Z,84.30
2023-04-15T19:42:09.435Z,88.50
2023-04-15T19:44:42.660Z,85.40
2023-04-15T19:47:11.593Z,85.53
2023-04-15T19:49:40.110Z,84.57
2023-04-15T19:52:08.716Z,87.50
2023-04-15T19:54:37.082Z,83.43
2023-04-15T19:57:05.884Z,85.43
2023-04-15T19:59:34.538Z,81.23
2023-04-15T20:02:04.644Z,85.77
2023-04-15T20:04:33.142Z,89.60
2023-04-15T20:07:01.748Z,89.70
2023-04-15T20:09:29.935Z,86.87
2023-04-15T20:12:06.170Z,86.13
2023-04-15T20:14:46.939Z,84.47
2023-04-15T20:17:17.212Z,86.40
2023-04-15T20:19:45.486Z,87.00
2023-04-15T20:22:14.186Z,86.70
2023-04-15T20:24:42.524Z,80.43
2023-04-15T20:27:11.053Z,82.73
2023-04-15T20:29:39.297Z,85.27
2023-04-15T20:32:11.279Z,85.67
2023-04-15T20:34:41.249Z,86.40
2023-04-15T20:37:09.854Z,86.90
2023-04-15T20:39:38.106Z,86.43
2023-04-15T20:42:10.090Z,89.80
2023-04-15T20:44:38.634Z,87.63
2023-04-15T20:47:07.997Z,90.70
2023-04-15T20:49:36.731Z,87.10
2023-04-15T20:52:08.716Z,89.83
2023-04-15T20:54:36.995Z,87.77
2023-04-15T20:57:05.530Z,87.57
2023-04-15T20:59:34.860Z,92.37
2023-04-15T21:02:03.854Z,88.17
2023-04-15T21:04:32.695Z,91.23
2023-04-15T21:07:01.261Z,85.87
2023-04-15T21:09:30.877Z,87.87
2023-04-15T21:12:01.561Z,84.97
2023-04-15T21:14:30.952Z,85.57
2023-04-15T21:16:59.484Z,91.67
2023-04-15T21:19:27.653Z,95.67
2023-04-15T21:21:56.197Z,94.40
2023-04-15T21:24:24.460Z,94.30
2023-04-15T21:26:54.570Z,91.47
2023-04-15T21:29:23.002Z,94.20
2023-04-15T21:31:51.606Z,92.43
2023-04-15T21:34:20.006Z,93.63
2023-04-15T21:36:48.519Z,92.40
2023-04-15T21:39:17.082Z,89.47
2023-04-15T21:41:45.795Z,89.37
2023-04-15T21:44:15.444Z,89.23
2023-04-15T21:46:45.573Z,89.30
2023-04-15T21:49:14.288Z,90.97
2023-04-15T21:51:42.783Z,89.23
2023-04-15T21:54:11.000Z,89.50
2023-04-15T21:56:39.633Z,90.57
2023-04-15T21:59:08.090Z,91.07
2023-04-15T22:01:38.004Z,91.90
2023-04-15T22:04:07.590Z,88.70
2023-04-15T22:06:36.379Z,91.67
2023-04-15T22:09:04.874Z,92.07
2023-04-15T22:11:33.446Z,91.50
2023-04-15T22:14:01.887Z,90.43
2023-04-15T22:16:30.717Z,93.23
2023-04-15T22:19:00.485Z,91.17
2023-04-15T22:21:28.964Z,93.20
2023-04-15T22:24:31.598Z,92.73
2023-04-15T22:26:45.902Z,93.93
2023-04-15T22:29:14.350Z,94.40
2023-04-15T22:31:43.789Z,96.47
2023-04-15T22:34:14.849Z,98.07
2023-04-15T22:36:43.136Z,90.10
2023-04-15T22:39:11.753Z,93.33
2023-04-15T22:41:40.266Z,94.00
2023-04-15T22:44:08.988Z,95.67
2023-04-15T22:46:38.294Z,95.53
2023-04-15T22:49:09.254Z,95.47
2023-04-15T22:51:38.996Z,93.50
2023-04-15T22:54:07.527Z,94.43
2023-04-15T22:56:36.083Z,92.47
2023-04-15T22:59:04.569Z,89.83
2023-04-15T23:01:32.877Z,89.83
2023-04-15T23:04:08.788Z,89.70
2023-04-15T23:06:51.140Z,92.27
2023-04-15T23:09:19.751Z,88.40
2023-04-15T23:11:48.616Z,99.03
2023-04-15T23:14:17.650Z,95.17
2023-04-15T23:16:46.337Z,93.23
2023-04-15T23:19:15.736Z,92.87
2023-04-15T23:21:44.166Z,92.43
2023-04-15T23:24:14.408Z,94.27
2023-04-15T23:26:42.644Z,93.33
2023-04-15T23:29:11.622Z,95.17
2023-04-15T23:31:41.487Z,89.67
2023-04-15T23:34:10.507Z,92.30
2023-04-15T23:36:38.733Z,89.97
2023-04-15T23:39:07.537Z,91.47
2023-04-15T23:41:37.500Z,88.20
2023-04-15T23:44:07.153Z,89.57
2023-04-15T23:46:35.466Z,89.67
2023-04-15T23:49:04.021Z,91.03
2023-04-15T23:51:32.388Z,90.50
2023-04-15T23:54:00.965Z,90.10
2023-04-15T23:56:29.298Z,88.40
2023-04-15T23:58:59.374Z,90.73
